Station: Gove Airport  

  Atmospheric Gas Attenuation - ITU Rec 676-11   ----------------- dB/100km -----------------
Date Time Temp RH % AH g/m3 Dew Point Wind Direction Speed kph Gust kph Barometer mB Rainfall Since 9am 24GHz 47GHz 76GHz 122GHz 134GHz 241GHz
31/08 17:20 25.8 66 15.89 19 22 30 1016 0.2 34.3 34.2 62.6 165.3 177.1 614.9
31/08 17:10 26.1 66 16.16 19.2 20 32 1016.1 0.2 34.8 34.5 63.5 167.8 180.2 625.8
31/08 17:00 26.2 65 16 19.1 22 32 1016.1 0.2 34.5 34.2 62.7 165.7 177.8 617.2
31/08 16:50 26.6 65 16.36 19.5 19 28 1016 0.2 35.2 34.7 63.9 169.0 181.9 631.6
31/08 16:40 26.5 63 15.77 18.9 22 30 1016 0.2 34.0 33.7 61.5 162.4 173.8 603.6
31/08 16:30 26.7 62 15.69 18.8 24 32 1015.9 0.2 33.8 33.5 61.0 161.1 172.3 598.1
31/08 16:20 27 61 15.7 18.8 24 33 1015.9 0.2 33.8 33.4 60.8 160.6 171.7 596.3
31/08 16:10 27.3 63 16.49 19.6 22 30 1015.8 0.2 35.4 34.6 63.9 168.9 182.0 632.1
31/08 16:00 26.7 62 15.69 18.8 22 32 1015.8 0.2 33.8 33.5 61.0 161.1 172.2 598.1
31/08 15:50 26.9 64 16.38 19.5 20 28 1015.8 0.2 35.2 34.6 63.8 168.5 181.4 630.0
31/08 15:40 26.8 63 16.04 19.2 24 35 1015.8 0.2 34.5 34.0 62.4 164.8 176.9 614.2
31/08 15:30 27.2 63 16.39 19.5 26 33 1015.9 0.2 35.2 34.5 63.6 168.0 180.8 628.1
31/08 15:20 26.7 63 15.95 19.1 28 39 1015.8 0.2 34.3 33.9 62.1 164.0 175.9 610.6
31/08 15:10 26.8 62 15.78 18.9 26 35 1015.8 0.2 34.0 33.6 61.3 161.9 173.3 601.6
31/08 15:00 27.8 60 16.14 19.3 24 39 1015.8 0.2 34.6 33.8 62.0 163.9 176.0 611.2
31/08 14:50 27.4 61 16.05 19.2 26 33 1015.9 0.2 34.5 33.8 62.0 163.7 175.7 610.0
31/08 14:40 27.4 61 16.05 19.2 28 35 1016 0.2 34.5 33.8 62.0 163.7 175.7 610.1
31/08 14:30 27.9 60 16.23 19.4 26 35 1016 0.2 34.8 33.9 62.3 164.7 177.0 614.8
31/08 14:20 27.7 60 16.05 19.2 24 33 1016.2 0.2 34.5 33.7 61.7 163.1 175.0 607.8
31/08 14:10 28 61 16.59 19.8 28 37 1016.3 0.2 35.6 34.5 63.8 168.6 181.8 631.5
31/08 14:00 27.7 61 16.32 19.5 28 41 1016.4 0.2 35.0 34.2 62.9 166.2 178.8 620.9
31/08 13:50 28.1 57 15.59 18.8 26 41 1016.4 0.2 33.5 32.8 59.5 157.2 167.9 582.9
31/08 13:40 27.9 60 16.23 19.4 28 39 1016.6 0.2 34.8 33.9 62.4 164.8 177.1 615.1
31/08 13:30 28 62 16.86 20 26 37 1016.7 0.2 36.1 35.0 65.0 171.7 185.6 644.8
31/08 13:20 27.3 64 16.75 19.9 26 37 1016.9 0.2 36.0 35.1 65.1 172.0 185.8 645.4
31/08 13:10 27.4 63 16.58 19.7 26 39 1017 0.2 35.6 34.8 64.3 169.9 183.2 636.2
31/08 13:00 26.8 66 16.8 19.9 28 37 1017.1 0.2 36.1 35.4 65.7 173.7 187.8 652.1
31/08 12:50 27 62 15.96 19.1 26 39 1017.3 0.2 34.3 33.9 62.0 163.7 175.5 609.4
31/08 12:40 27.3 63 16.49 19.6 28 37 1017.5 0.2 35.4 34.7 64.0 169.1 182.2 632.9
31/08 12:30 27.2 65 16.92 20 24 37 1017.6 0.2 36.3 35.4 66.0 174.3 188.5 654.9
31/08 12:20 26.4 67 16.68 19.8 26 33 1017.8 0.2 35.9 35.4 65.6 173.3 187.1 649.9
31/08 12:10 27.2 65 16.92 20 26 41 1017.9 0.2 36.3 35.5 66.0 174.3 188.6 655.1
31/08 12:00 28.6 61 17.14 20.3 28 39 1018 0.2 36.7 35.3 65.7 173.7 188.2 654.1
31/08 11:50 27.8 64 17.22 20.4 30 43 1018 0.2 36.9 35.7 66.8 176.5 191.4 664.8
31/08 11:40 27.8 63 16.95 20.1 22 37 1018.1 0.2 36.3 35.3 65.6 173.4 187.6 651.6
31/08 11:30 26.5 70 17.52 20.6 22 32 1018.2 0.2 37.6 36.8 69.2 183.0 199.1 691.4
31/08 11:20 27 68 17.5 20.6 22 33 1018.3 0.2 37.6 36.6 68.7 181.6 197.5 686.0
31/08 11:10 28.7 62 17.52 20.7 24 39 1018.4 0.2 37.4 35.9 67.3 177.9 193.4 672.0
31/08 11:00 26.9 63 16.12 19.3 26 35 1018.5 0.2 34.7 34.2 62.8 165.9 178.1 618.5
31/08 10:50 28 61 16.59 19.8 24 37 1018.5 0.2 35.5 34.6 63.9 168.9 182.1 632.5
31/08 10:40 27.7 61 16.32 19.5 22 32 1018.7 0.2 35.0 34.3 63.0 166.5 179.1 621.9
31/08 10:30 28 61 16.59 19.8 19 26 1018.8 0.2 35.5 34.6 63.9 168.9 182.1 632.6
31/08 10:20 28.8 58 16.48 19.7 22 33 1018.8 0.2 35.2 34.1 62.8 166.0 178.7 620.9
31/08 10:10 27.5 61 16.14 19.3 20 30 1018.8 0.2 34.6 34.0 62.4 164.9 177.0 614.9
31/08 10:00 27.6 61 16.23 19.4 24 32 1018.8 0.2 34.8 34.1 62.7 165.7 178.1 618.4
31/08 09:50 27.5 61 16.14 19.3 19 26 1018.9 0.2 34.6 34.0 62.4 164.9 177.0 614.9
31/08 09:40 26.6 62 15.61 18.7 19 28 1018.9 0 33.6 33.5 60.9 160.8 171.8 596.3
31/08 09:30 27.3 62 16.22 19.6 19 26 1018.9 0 34.8 34.2 62.9 166.2 178.6 620.4
31/08 09:20 26.9 62 15.87 19 20 28 1018.8 0 34.1 33.8 61.8 163.1 174.7 606.5
31/08 09:10 26.5 64 16.02 19.1 19 26 1018.8 0 34.5 34.2 62.7 165.7 177.7 617.0
31/08 09:00 25.9 64 15.49 18.6 19 26 1018.7 0 33.4 33.5 60.9 160.9 171.6 595.8
31/08 08:50 26.3 63 15.6 18.9 17 24 1018.8 2.4 33.6 33.6 61.1 161.3 172.3 598.1
31/08 08:40 26.1 67 16.4 19.5 15 20 1018.7 2.4 35.3 35.0 64.7 170.9 184.0 638.9
31/08 08:30 25.6 68 16.19 19.3 13 20 1018.6 2.4 34.9 34.9 64.2 169.5 182.2 632.5
31/08 08:20 24.9 70 16.02 19.1 11 15 1018.6 2.4 34.6 34.9 64.0 169.1 181.4 629.8
31/08 08:10 24.5 72 16.11 19.1 9 13 1018.5 2.4 34.8 35.2 64.7 171.0 183.7 637.6
31/08 08:00 23.9 74 16.01 19 9 13 1018.4 2.4 34.7 35.2 64.8 171.2 183.7 637.4
31/08 07:50 23.4 77 16.19 19.1 11 15 1018.3 2.4 35.1 35.8 66.0 174.4 187.5 650.8
31/08 07:40 21.8 81 15.54 18.4 9 11 1018.2 2.4 33.9 35.2 64.4 170.2 181.8 630.7
31/08 07:30 20.3 91 16 18.8 7 11 1018.1 2.4 35.0 36.7 67.9 179.2 192.5 667.6
31/08 07:20 20 97 16.76 19.5 6 9 1018 2.4 36.6 38.3 71.7 189.6 205.0 711.3
31/08 07:10 19.2 97 15.99 18.7 6 7 1017.9 2.4 35.1 37.2 68.8 181.7 195.1 676.8
31/08 07:00 18.3 96 15.01 17.7 6 7 1017.8 2.4 33.0 35.7 65.0 171.5 182.3 631.8
31/08 06:50 17.7 96 14.48 17.1 6 6 1017.6 2.4 31.9 35.0 63.0 166.2 175.6 608.5
31/08 06:40 17.8 96 14.57 17.2 6 6 1017.5 2.4 32.1 35.1 63.3 167.1 176.7 612.4
31/08 06:30 17.6 96 14.4 17 2 6 1017.3 2.4 31.8 34.8 62.7 165.4 174.6 604.9
31/08 06:20 17.6 96 14.4 17 0 0 1017.2 2.4 31.8 34.8 62.7 165.4 174.6 604.9
31/08 06:10 17.7 96 14.48 17.1 0 0 1017.2 2.4 31.9 34.9 62.9 166.1 175.5 608.3
31/08 06:00 17.7 96 14.48 17.1 0 0 1017.1 2.4 31.9 34.9 62.9 166.1 175.5 608.3
31/08 05:50 17.5 95 14.16 16.7 0 0 1017 2.4 31.3 34.4 61.6 162.6 171.1 592.9
31/08 05:40 17.8 96 14.57 17.2 0 0 1016.9 2.4 32.1 35.1 63.3 167.0 176.6 612.1
31/08 05:30 17.9 96 14.66 17.3 0 4 1016.8 2.4 32.3 35.2 63.6 167.9 177.8 616.1
31/08 05:20 17.9 96 14.66 17.3 4 6 1016.8 2.4 32.3 35.2 63.6 167.9 177.8 616.1
31/08 05:10 17.9 96 14.66 17.3 0 0 1016.8 2.4 32.3 35.2 63.6 167.9 177.8 616.1
31/08 05:00 17.8 96 14.57 17.2 0 0 1016.8 2.4 32.1 35.1 63.3 167.0 176.6 612.1
31/08 04:50 17.8 96 14.57 17.2 0 6 1016.7 2.4 32.1 35.1 63.3 167.0 176.6 612.0
31/08 04:40 18 96 14.74 17.4 4 6 1016.7 2.4 32.5 35.3 63.9 168.6 178.7 619.4
31/08 04:30 17.7 96 14.48 17.1 0 0 1016.7 2.4 31.9 34.9 62.9 166.1 175.5 608.1
31/08 04:20 18 96 14.74 17.4 0 0 1016.8 2.4 32.5 35.3 63.9 168.7 178.7 619.5
31/08 04:10 17.8 96 14.57 17.2 0 0 1016.7 2.4 32.1 35.1 63.3 167.0 176.6 612.0
31/08 04:00 18 96 14.74 17.4 0 0 1016.7 2.4 32.5 35.3 63.9 168.6 178.7 619.4
31/08 03:50 18 96 14.74 17.4 0 0 1016.7 2.4 32.5 35.3 63.9 168.6 178.7 619.4
31/08 03:40 18.1 96 14.83 17.5 0 0 1016.7 2.4 32.7 35.4 64.2 169.5 179.9 623.4
31/08 03:30 18.1 96 14.83 17.5 6 6 1016.6 2.4 32.7 35.4 64.2 169.5 179.8 623.4
31/08 03:20 17.8 96 14.57 17.2 6 9 1016.6 2.4 32.1 35.0 63.3 167.0 176.6 612.0
31/08 03:10 17.7 96 14.48 17.1 4 7 1016.5 2.4 31.9 34.9 62.9 166.1 175.4 608.0
31/08 03:00 17.8 96 14.57 17.2 0 0 1016.5 2.4 32.1 35.0 63.2 166.9 176.6 612.0
31/08 02:50 18.2 96 14.92 17.6 0 0 1016.6 2.4 32.9 35.5 64.5 170.4 181.0 627.3
31/08 02:40 18.2 95 14.76 17.4 0 0 1016.7 2.4 32.5 35.2 63.8 168.4 178.6 618.9
31/08 02:30 18.3 95 14.85 17.5 0 0 1016.8 2.4 32.7 35.4 64.1 169.4 179.7 622.9
31/08 02:20 18.5 95 15.03 17.7 0 0 1016.9 2.4 33.1 35.6 64.8 171.2 182.0 630.8
31/08 02:10 18.7 96 15.37 18 0 0 1017 2.4 33.8 36.2 66.2 175.0 186.7 647.3
31/08 02:00 18.4 95 14.94 17.6 0 0 1017 2.4 32.9 35.5 64.5 170.3 180.9 626.9
31/08 01:50 18.6 95 15.12 17.8 0 0 1017.1 2.4 33.2 35.8 65.2 172.1 183.1 634.9
31/08 01:40 18.5 95 15.03 17.7 0 0 1017.4 2.4 33.1 35.7 64.9 171.2 182.0 631.1
31/08 01:30 18.8 95 15.3 18 0 0 1017.5 2.4 33.6 36.0 65.9 173.9 185.4 643.0
31/08 01:20 18.9 95 15.39 18.1 0 0 1017.5 2.4 33.8 36.2 66.2 174.8 186.6 646.9
31/08 01:10 18.9 95 15.39 18.1 0 0 1017.6 2.4 33.8 36.2 66.2 174.8 186.6 647.0
31/08 01:00 18.9 94 15.23 17.9 4 6 1017.6 2.4 33.5 35.9 65.5 172.8 184.1 638.4
31/08 00:50 19.3 95 15.76 18.5 0 0 1017.7 2.4 34.6 36.7 67.6 178.5 191.3 663.4

Last Refresh: 31-Aug-2026 17:35:20

Bureau of Meteorology